Huvudsida
METAR-TAF:

METAR-TAF

Flygplatser :

Tartus flygplats

Tartu, Estland

latitud: 58-18N, longitud: 026-44E, höjd: 59 m

Aktuellt väderrapport

Denna rapport gjordes för 1 timme och 6 minuter sedan, klockan 10:50 UTC
Vind 3 kt från nord, varierande mellan nordväst och nord/nordost
Temperatur 0°C
Fuktighet 100%
Tryck 1010 hPa
Sikt: 2200 m
Mulet på en höjd av 200 ft
lätt duggregn, fuktdis

METAR: EETU 111050Z 35003KT 320V030 2200 -DZ BR OVC002 00/M00 Q1010

Tid: 13:56 (11:56 UTC)

Väderprognos

Denna rapport gjordes för 13 timmar och 26 minuter sedan, klockan 22:30 UTC
Prognos gäller från 10 kl. 22 UTC till 11 kl. 04 UTC
Vind 2 kt varierande vindriktning
Sikt: 0700 m
på en höjd av 200 ft
dimma
Sannolikhet 40% :
Temporärt
från 10 kl. 22 UTC till 11 kl. 04 UTC
Sikt: 2000 m
Mulet på en höjd av 300 ft
kornsnö, (lätt) underkylt, duggregn

TAF: EETU 102230Z 1022/1104 VRB02KT 0700 FG VV002 PROB40 TEMPO 1022/1104 2000 SG -FZDZ OVC003

Aktuella väderrapporter och prognoser från 4000 flygplatser (METAR- och TAF-rapporter).

De tillgängliga stationerna syns som gula och röda prickar på kartan.

För musen över prickarna för att se namnen på stationerna.

Klicka sedan för att få väderrapporter och prognoser.

För att ändra kartan: Klicka på de gröna knapparna med ett svart kors på för att zooma in; den gröna knappen med ett streck på för att zooma ut; eller på de gröna pilarna för angränsande kartor.


METAR-TAF: